Time;durP1;ratioP1;P1;durP2;ratioP2;P2;SDS_P1;SDS_P2;PMS_P1;PMS_P2;Temp;Humidity;BMP_temperature;BMP_pressure;BME280_temperature;BME280_humidity;BME280_pressure;Samples;Min_cycle;Max_cycle;Signal;HPM_P1;HPM_P2
2022/12/05 00:01:46;;;;;;;78.13;30.30;;;1.60;99.90;;;;;;10319154;28;20581;-82
2022/12/05 00:06:47;;;;;;;86.47;31.50;;;1.50;99.90;;;;;;10317726;28;20036;-82
2022/12/05 00:11:47;;;;;;;75.37;31.00;;;1.60;99.90;;;;;;10314793;28;20133;-82
2022/12/05 00:16:48;;;;;;;69.57;27.27;;;1.60;99.90;;;;;;10317497;28;20030;-82
2022/12/05 00:21:48;;;;;;;67.13;26.50;;;1.60;99.90;;;;;;10318658;28;20038;-82
2022/12/05 00:26:49;;;;;;;59.47;24.27;;;1.60;99.90;;;;;;10318024;28;20113;-82
2022/12/05 00:31:50;;;;;;;63.43;25.80;;;1.60;99.90;;;;;;10316165;28;20133;-82
2022/12/05 00:36:50;;;;;;;72.00;29.00;;;1.60;99.90;;;;;;10316217;28;20180;-81
2022/12/05 00:41:51;;;;;;;70.20;27.83;;;1.60;99.90;;;;;;10316609;28;20077;-84
2022/12/05 00:46:51;;;;;;;61.63;25.97;;;1.60;99.90;;;;;;10316724;28;20053;-82
2022/12/05 00:51:52;;;;;;;63.03;26.10;;;1.60;99.90;;;;;;10318402;28;20034;-82
2022/12/05 00:56:55;;;;;;;66.37;27.27;;;1.60;99.90;;;;;;10316072;28;20406;-83
2022/12/05 01:01:55;;;;;;;57.63;24.80;;;1.70;99.90;;;;;;10316320;28;20159;-82
2022/12/05 01:06:57;;;;;;;66.03;27.57;;;1.70;99.90;;;;;;10316950;28;20737;-83
2022/12/05 01:11:58;;;;;;;74.23;29.70;;;1.60;99.90;;;;;;10315634;28;20018;-82
2022/12/05 01:16:59;;;;;;;69.67;29.80;;;1.60;99.90;;;;;;10315761;28;20034;-81
2022/12/05 01:21:59;;;;;;;81.73;31.87;;;1.60;99.90;;;;;;10314864;28;20556;-82
2022/12/05 01:27:00;;;;;;;74.20;29.00;;;1.60;99.90;;;;;;10315328;28;20046;-82
2022/12/05 01:32:00;;;;;;;75.77;31.70;;;1.60;99.90;;;;;;10313761;28;20041;-82
2022/12/05 01:37:01;;;;;;;77.80;31.53;;;1.70;99.90;;;;;;10329646;22;20062;-83
2022/12/05 01:42:03;;;;;;;68.27;28.23;;;1.70;99.90;;;;;;10314647;28;20034;-83
2022/12/05 01:47:04;;;;;;;76.37;30.37;;;1.70;99.90;;;;;;10314686;28;20482;-82
2022/12/05 01:52:25;;;;;;;66.03;28.60;;;1.70;99.90;;;;;;10321889;28;20033;-82
2022/12/05 01:57:26;;;;;;;63.73;26.93;;;1.70;99.90;;;;;;10322977;28;20038;-81
2022/12/05 02:02:29;;;;;;;67.70;25.70;;;1.70;99.90;;;;;;10322138;28;20034;-82
2022/12/05 02:07:31;;;;;;;61.87;28.00;;;1.70;99.90;;;;;;10322886;28;20485;-81
2022/12/05 02:12:32;;;;;;;55.33;23.00;;;1.60;99.90;;;;;;10321337;28;20092;-82
2022/12/05 02:17:38;;;;;;;67.43;26.97;;;1.60;99.90;;;;;;10323520;28;20259;-83
2022/12/05 02:22:39;;;;;;;;;;;1.60;99.90;;;;;;10323329;28;20041;-82
2022/12/05 02:28:14;;;;;;;63.03;27.93;;;1.60;99.90;;;;;;10324400;28;20427;-82
2022/12/05 02:33:19;;;;;;;71.73;28.27;;;1.50;99.90;;;;;;10321347;28;20104;-82
2022/12/05 02:38:45;;;;;;;57.60;25.55;;;1.60;99.90;;;;;;10319733;28;20070;-82
2022/12/05 02:44:01;;;;;;;65.50;26.03;;;1.60;99.90;;;;;;10336128;28;20390;-83
2022/12/05 02:49:05;;;;;;;64.40;26.92;;;1.60;99.90;;;;;;10322722;28;20030;-82
2022/12/05 02:54:12;;;;;;;65.87;26.20;;;1.60;99.90;;;;;;10320853;28;20069;-83
2022/12/05 02:59:12;;;;;;;61.33;26.60;;;1.60;99.90;;;;;;10321215;28;20036;-82
2022/12/05 03:04:15;;;;;;;61.73;26.93;;;1.60;99.90;;;;;;10320908;28;20804;-82
2022/12/05 03:09:21;;;;;;;56.77;27.17;;;1.70;99.90;;;;;;10320419;28;20173;-82
2022/12/05 03:14:27;;;;;;;58.27;25.53;;;1.70;99.90;;;;;;10320670;28;20542;-83
2022/12/05 03:19:57;;;;;;;66.60;29.00;;;1.80;99.90;;;;;;10318614;28;20057;-83
2022/12/05 03:24:59;;;;;;;62.77;26.90;;;1.80;99.90;;;;;;10318139;28;20029;-82
2022/12/05 03:30:06;;;;;;;58.47;26.43;;;1.70;99.90;;;;;;10318928;28;20081;-82
2022/12/05 03:35:14;;;;;;;56.23;24.90;;;1.70;99.90;;;;;;10340987;23;20056;-82
2022/12/05 03:40:17;;;;;;;59.57;25.37;;;1.70;99.90;;;;;;10332699;28;20045;-82
2022/12/05 03:45:26;;;;;;;58.43;24.00;;;1.70;99.90;;;;;;10337120;28;20108;-82
2022/12/05 03:50:28;;;;;;;60.60;25.77;;;1.60;99.90;;;;;;10332684;28;20550;-82
2022/12/05 03:55:33;;;;;;;58.07;24.20;;;1.60;99.90;;;;;;10332960;28;21513;-82
2022/12/05 04:00:39;;;;;;;58.97;24.03;;;1.60;99.90;;;;;;10338530;28;20089;-82
2022/12/05 04:05:56;;;;;;;59.88;24.52;;;1.60;99.90;;;;;;10326762;28;20474;-83
2022/12/05 04:11:04;;;;;;;57.20;25.07;;;1.70;99.90;;;;;;10335419;28;20026;-82
2022/12/05 04:21:46;;;;;;;54.77;24.60;;;1.70;99.90;;;;;;10329135;28;20050;-84
2022/12/05 04:26:54;;;;;;;61.13;26.37;;;1.70;99.90;;;;;;10336690;28;20063;-82
2022/12/05 04:32:00;;;;;;;57.03;24.17;;;1.60;99.90;;;;;;10331264;28;20042;-84
2022/12/05 04:37:11;;;;;;;56.15;24.98;;;1.60;99.90;;;;;;10332926;28;20041;-83
2022/12/05 04:42:26;;;;;;;53.73;24.80;;;1.60;99.90;;;;;;10328481;28;20408;-82
2022/12/05 04:47:34;;;;;;;55.63;24.83;;;1.70;99.90;;;;;;10330055;28;20033;-82
2022/12/05 04:52:36;;;;;;;57.90;26.37;;;1.70;99.90;;;;;;10333011;28;20112;-84
2022/12/05 04:57:54;;;;;;;54.87;26.93;;;1.70;99.90;;;;;;10337461;28;20453;-82
2022/12/05 05:03:31;;;;;;;56.17;24.93;;;1.70;99.90;;;;;;10329713;28;20034;-84
2022/12/05 05:08:32;;;;;;;53.33;23.70;;;1.70;99.90;;;;;;10294234;28;20397;-81
2022/12/05 05:13:32;;;;;;;52.17;24.10;;;1.70;99.90;;;;;;10335523;28;20033;-82
2022/12/05 05:18:33;;;;;;;64.47;29.53;;;1.70;99.90;;;;;;10324937;28;20122;-82
2022/12/05 05:23:33;;;;;;;112.63;49.03;;;1.70;99.90;;;;;;10331485;28;20111;-81
2022/12/05 05:28:34;;;;;;;62.00;27.30;;;1.80;99.90;;;;;;10309435;28;20042;-82
2022/12/05 05:33:35;;;;;;;91.20;38.33;;;1.80;99.90;;;;;;10318719;28;20050;-81
2022/12/05 05:38:38;;;;;;;86.93;38.17;;;1.80;99.90;;;;;;10320497;28;20042;-81
2022/12/05 05:43:39;;;;;;;58.27;24.37;;;1.80;99.90;;;;;;10319630;28;20478;-82
2022/12/05 05:48:40;;;;;;;88.13;34.27;;;1.70;99.90;;;;;;10313975;28;20035;-82
2022/12/05 05:53:41;;;;;;;108.27;43.07;;;1.60;99.90;;;;;;10315165;28;20030;-81
2022/12/05 05:58:42;;;;;;;83.23;37.40;;;1.50;99.90;;;;;;10318458;28;20042;-82
2022/12/05 06:03:43;;;;;;;89.77;43.20;;;1.50;99.90;;;;;;10318804;28;20482;-82
2022/12/05 06:08:45;;;;;;;88.57;40.33;;;1.40;99.90;;;;;;10319877;28;20031;-81
2022/12/05 06:13:46;;;;;;;82.70;36.03;;;1.40;99.90;;;;;;10318434;28;20451;-82
2022/12/05 06:18:46;;;;;;;70.03;27.90;;;1.30;99.90;;;;;;10318910;28;20125;-81
2022/12/05 06:23:47;;;;;;;64.03;29.40;;;1.30;99.90;;;;;;10318361;28;20038;-81
2022/12/05 06:28:48;;;;;;;68.37;29.27;;;1.20;99.90;;;;;;10318335;28;20105;-81
2022/12/05 06:33:49;;;;;;;61.77;25.13;;;1.30;99.90;;;;;;10318890;28;20058;-81
2022/12/05 06:38:49;;;;;;;65.27;27.00;;;1.40;99.90;;;;;;10324269;28;20402;-82
2022/12/05 06:43:58;;;;;;;65.23;27.53;;;1.40;99.90;;;;;;10325306;28;20022;-82
2022/12/05 06:48:58;;;;;;;62.00;29.60;;;1.40;99.90;;;;;;10325438;28;20032;-81
2022/12/05 06:53:59;;;;;;;56.97;28.00;;;1.50;99.90;;;;;;10325124;28;20485;-81
2022/12/05 06:58:59;;;;;;;56.80;27.03;;;1.50;99.90;;;;;;10323739;28;20034;-82
2022/12/05 07:04:01;;;;;;;63.07;27.43;;;1.50;99.90;;;;;;10325282;28;20439;-81
2022/12/05 07:09:03;;;;;;;53.47;26.13;;;1.50;99.90;;;;;;10325168;28;20118;-81
2022/12/05 07:14:04;;;;;;;54.60;24.77;;;1.60;99.90;;;;;;10324060;28;20080;-81
2022/12/05 07:19:04;;;;;;;51.77;26.17;;;1.60;99.90;;;;;;10323921;28;20050;-81
2022/12/05 07:24:05;;;;;;;50.10;23.27;;;1.70;99.90;;;;;;10324542;28;20026;-81
2022/12/05 07:29:05;;;;;;;49.40;22.80;;;1.70;99.90;;;;;;10324200;28;20038;-82
2022/12/05 07:34:06;;;;;;;53.77;24.57;;;1.80;99.90;;;;;;10323912;28;20069;-82
2022/12/05 07:39:08;;;;;;;49.40;21.77;;;1.90;99.90;;;;;;10321863;28;20048;-82
2022/12/05 07:44:10;;;;;;;48.27;22.80;;;2.10;99.90;;;;;;10324599;28;20076;-82
2022/12/05 07:49:11;;;;;;;49.43;22.97;;;2.20;99.90;;;;;;10321827;28;20583;-82
2022/12/05 07:54:12;;;;;;;50.63;23.20;;;2.40;99.90;;;;;;10322917;28;20026;-82
2022/12/05 07:59:12;;;;;;;48.97;23.40;;;2.60;99.90;;;;;;10322495;28;20088;-82
2022/12/05 08:04:13;;;;;;;62.93;27.97;;;2.80;99.90;;;;;;10321962;28;20520;-82
2022/12/05 08:09:13;;;;;;;56.43;29.90;;;3.00;99.90;;;;;;10323102;28;20034;-81
2022/12/05 08:14:14;;;;;;;68.30;32.90;;;3.20;99.90;;;;;;10321839;28;20367;-82
2022/12/05 08:19:15;;;;;;;53.90;26.10;;;3.50;99.90;;;;;;10321785;28;20045;-82
2022/12/05 08:24:16;;;;;;;48.90;26.20;;;3.70;99.90;;;;;;10321753;28;20029;-81
2022/12/05 08:29:20;;;;;;;47.40;24.60;;;3.90;99.90;;;;;;10321261;28;20363;-82
2022/12/05 08:34:20;;;;;;;67.87;29.43;;;3.90;99.90;;;;;;10322106;28;20487;-82
2022/12/05 08:39:21;;;;;;;53.70;26.47;;;4.00;99.90;;;;;;10320902;28;20037;-82
2022/12/05 08:44:22;;;;;;;53.37;26.03;;;4.20;99.90;;;;;;10321336;28;20044;-82
2022/12/05 08:49:22;;;;;;;56.63;29.07;;;4.60;99.90;;;;;;10321285;28;20480;-82
2022/12/05 08:54:23;;;;;;;50.73;26.70;;;4.80;99.90;;;;;;10321262;28;20026;-82
2022/12/05 08:59:24;;;;;;;46.13;24.47;;;5.00;99.90;;;;;;10320497;28;20387;-82
2022/12/05 09:04:24;;;;;;;50.53;27.03;;;5.30;99.90;;;;;;10320162;28;20601;-82
2022/12/05 09:09:25;;;;;;;52.87;26.30;;;5.50;99.90;;;;;;10320159;28;20056;-82
2022/12/05 09:14:31;;;;;;;53.53;24.87;;;5.50;99.90;;;;;;10320435;28;20034;-82
2022/12/05 09:19:32;;;;;;;52.27;26.77;;;5.60;99.90;;;;;;10320763;28;20042;-82
2022/12/05 09:24:32;;;;;;;113.97;44.20;;;5.60;99.90;;;;;;10320130;28;20022;-82
2022/12/05 09:29:33;;;;;;;57.13;27.80;;;5.80;99.90;;;;;;10320190;28;20561;-83
2022/12/05 09:34:34;;;;;;;56.77;27.80;;;5.80;99.90;;;;;;10319714;28;20089;-82
2022/12/05 09:39:35;;;;;;;91.57;36.50;;;5.90;99.90;;;;;;10319695;28;20852;-82
2022/12/05 09:44:44;;;;;;;61.17;27.77;;;6.00;99.90;;;;;;10320126;28;20031;-82
2022/12/05 09:50:12;;;;;;;48.97;26.17;;;6.10;99.90;;;;;;10319649;28;20034;-82
2022/12/05 09:55:16;;;;;;;46.50;24.67;;;6.20;99.90;;;;;;10319622;28;20037;-82
2022/12/05 10:00:17;;;;;;;48.30;25.67;;;6.20;99.90;;;;;;10319382;28;20068;-82
2022/12/05 10:05:29;;;;;;;50.67;25.83;;;6.30;99.90;;;;;;10319763;28;20136;-82
2022/12/05 10:10:55;;;;;;;43.00;23.07;;;6.40;99.90;;;;;;10320337;28;20038;-82
2022/12/05 10:16:02;;;;;;;41.30;23.10;;;6.40;99.90;;;;;;10326901;28;20034;-83
2022/12/05 10:21:15;;;;;;;48.07;23.43;;;6.60;99.90;;;;;;10326440;28;20121;-82
2022/12/05 10:26:17;;;;;;;45.13;24.80;;;6.70;99.90;;;;;;10326780;28;20026;-82
2022/12/05 10:31:24;;;;;;;43.70;23.27;;;6.90;99.90;;;;;;10327059;28;20053;-82
2022/12/05 10:36:25;;;;;;;43.97;24.30;;;6.90;99.90;;;;;;10326354;28;20591;-82
2022/12/05 10:41:27;;;;;;;49.30;26.57;;;7.00;99.90;;;;;;10326072;28;20034;-82
2022/12/05 10:46:28;;;;;;;44.53;24.57;;;7.20;99.90;;;;;;10325684;28;20073;-82
2022/12/05 10:51:28;;;;;;;39.63;21.03;;;7.50;99.90;;;;;;10325743;28;20626;-82
2022/12/05 10:56:44;;;;;;;46.00;23.37;;;7.40;99.90;;;;;;10325858;28;20121;-82
2022/12/05 11:01:51;;;;;;;41.45;22.52;;;7.30;99.90;;;;;;10325589;28;20494;-82
2022/12/05 11:06:54;;;;;;;56.03;27.70;;;7.50;99.90;;;;;;10325603;28;20455;-83
2022/12/05 11:12:15;;;;;;;65.70;33.43;;;7.50;99.90;;;;;;10324439;28;20120;-82
2022/12/05 11:17:30;;;;;;;49.13;26.97;;;7.40;99.90;;;;;;10323019;28;20041;-82
2022/12/05 11:22:33;;;;;;;52.43;26.03;;;7.30;99.90;;;;;;10323188;28;20442;-82
2022/12/05 11:27:34;;;;;;;51.30;25.80;;;7.30;99.90;;;;;;10324602;28;20141;-82
2022/12/05 11:32:34;;;;;;;49.87;24.73;;;7.10;99.90;;;;;;10322243;28;20084;-83
2022/12/05 11:37:53;;;;;;;58.60;26.57;;;7.00;99.90;;;;;;10324631;28;20486;-82
2022/12/05 11:43:24;;;;;;;58.47;27.77;;;6.80;99.90;;;;;;10322461;28;20049;-83
2022/12/05 11:48:38;;;;;;;54.97;25.70;;;6.80;99.90;;;;;;10323231;28;20098;-83
2022/12/05 11:53:49;;;;;;;50.07;24.77;;;6.70;99.90;;;;;;10323016;28;20034;-83
2022/12/05 11:59:07;;;;;;;53.23;24.30;;;6.70;99.90;;;;;;10321681;28;20046;-82
2022/12/05 12:04:22;;;;;;;48.03;23.43;;;6.70;99.90;;;;;;10313122;28;20062;-82
2022/12/05 12:09:35;;;;;;;48.30;24.67;;;6.80;99.90;;;;;;10322180;28;20026;-82
2022/12/05 12:14:36;;;;;;;55.87;25.27;;;6.70;99.90;;;;;;10322224;28;20023;-82
2022/12/05 12:20:15;;;;;;;50.53;24.63;;;6.70;99.90;;;;;;10321905;28;20033;-82
2022/12/05 12:25:54;;;;;;;55.53;26.93;;;6.80;99.90;;;;;;10322462;28;20427;-82
2022/12/05 12:31:18;;;;;;;54.80;28.23;;;6.80;99.90;;;;;;10322047;28;20029;-82
2022/12/05 12:36:44;;;;;;;51.43;26.37;;;6.90;99.90;;;;;;10321616;28;20449;-83
2022/12/05 12:42:03;;;;;;;54.90;27.48;;;6.90;99.90;;;;;;10321748;28;20046;-83
2022/12/05 12:47:36;;;;;;;54.63;27.53;;;6.90;99.90;;;;;;10321112;28;20081;-82
2022/12/05 12:53:07;;;;;;;69.07;36.00;;;6.90;99.90;;;;;;10320155;28;20122;-82
2022/12/05 12:58:31;;;;;;;63.20;33.53;;;7.00;99.90;;;;;;10321019;28;20045;-82
2022/12/05 13:03:45;;;;;;;64.97;36.03;;;7.00;99.90;;;;;;10319335;28;20122;-82
2022/12/05 13:08:57;;;;;;;65.77;33.57;;;7.10;99.90;;;;;;10320945;28;20033;-83
2022/12/05 13:14:00;;;;;;;62.13;33.23;;;7.10;99.90;;;;;;10320538;28;20417;-82
2022/12/05 13:19:04;;;;;;;62.37;32.37;;;7.10;99.90;;;;;;10320683;28;20035;-82
2022/12/05 13:24:06;;;;;;;80.10;42.80;;;7.20;99.90;;;;;;10320378;28;20034;-82
2022/12/05 13:29:25;;;;;;;77.87;42.40;;;7.20;99.90;;;;;;10320260;28;20671;-82
2022/12/05 13:34:38;;;;;;;108.07;51.07;;;7.10;99.90;;;;;;10320170;28;20065;-82
2022/12/05 13:45:04;;;;;;;113.23;52.63;;;7.00;99.90;;;;;;10319364;28;20038;-82
2022/12/05 13:50:10;;;;;;;120.17;54.23;;;7.00;99.90;;;;;;10327906;28;20537;-84
2022/12/05 13:55:29;;;;;;;;;;;6.90;99.90;;;;;;10327005;28;20740;-82
2022/12/05 14:00:35;;;;;;;193.77;93.43;;;6.90;99.90;;;;;;10326973;28;19921;-83
2022/12/05 14:05:53;;;;;;;145.73;75.23;;;6.80;99.90;;;;;;10326645;28;20021;-84
2022/12/05 14:10:54;;;;;;;125.87;61.17;;;6.80;99.90;;;;;;10325532;28;20026;-84
2022/12/05 14:16:23;;;;;;;105.53;50.37;;;6.70;99.90;;;;;;10324905;28;20045;-82
2022/12/05 14:21:41;;;;;;;115.93;52.40;;;6.70;99.90;;;;;;10319186;28;20073;-82
2022/12/05 14:27:15;;;;;;;136.93;64.13;;;6.70;99.90;;;;;;10326673;28;20062;-83
2022/12/05 14:32:27;;;;;;;117.00;53.50;;;6.60;99.90;;;;;;10325621;28;20671;-81
2022/12/05 14:37:33;;;;;;;104.93;48.47;;;6.50;99.90;;;;;;10325016;28;20537;-81
2022/12/05 14:42:56;;;;;;;112.57;50.90;;;6.40;99.90;;;;;;10325658;28;20062;-82
2022/12/05 14:47:59;;;;;;;139.97;85.70;;;6.40;99.90;;;;;;10325620;28;20041;-81
2022/12/05 14:53:19;;;;;;;116.33;67.57;;;6.20;99.90;;;;;;10322981;28;20510;-81
2022/12/05 14:58:31;;;;;;;147.90;78.10;;;6.20;99.90;;;;;;10323926;28;20121;-81
2022/12/05 15:03:37;;;;;;;162.47;85.67;;;6.20;99.90;;;;;;10324691;28;20040;-82
2022/12/05 15:08:46;;;;;;;142.43;80.90;;;6.10;99.90;;;;;;10324387;28;20027;-82
2022/12/05 15:13:47;;;;;;;159.40;87.40;;;6.10;99.90;;;;;;10324211;28;20038;-81
2022/12/05 15:18:55;;;;;;;148.23;81.73;;;6.00;99.90;;;;;;10324350;28;20038;-81
2022/12/05 15:23:55;;;;;;;165.27;91.80;;;5.90;99.90;;;;;;10324853;28;20034;-82
2022/12/05 15:29:10;;;;;;;156.00;87.70;;;5.80;99.90;;;;;;10322330;28;20425;-81
2022/12/05 15:34:17;;;;;;;171.73;94.93;;;5.80;99.90;;;;;;10353643;22;20093;-80
2022/12/05 15:39:24;;;;;;;217.37;121.67;;;5.70;99.90;;;;;;10322650;28;20104;-80
2022/12/05 15:44:28;;;;;;;316.00;180.73;;;5.60;99.90;;;;;;10322375;28;20046;-80
2022/12/05 15:49:28;;;;;;;265.60;149.43;;;5.60;99.90;;;;;;10323212;28;20060;-80
2022/12/05 15:54:33;;;;;;;170.03;96.93;;;5.50;99.90;;;;;;10322548;28;20034;-80
2022/12/05 15:59:44;;;;;;;130.17;73.53;;;5.40;99.90;;;;;;10322438;28;20038;-80
2022/12/05 16:04:52;;;;;;;111.37;63.87;;;5.50;99.90;;;;;;10322410;28;20034;-80
2022/12/05 16:09:59;;;;;;;124.10;66.80;;;5.40;99.90;;;;;;10320935;28;20056;-80
2022/12/05 16:15:03;;;;;;;125.10;64.20;;;5.40;99.90;;;;;;10322323;28;20027;-80
2022/12/05 16:20:32;;;;;;;106.43;56.80;;;5.40;99.90;;;;;;10321828;28;20034;-80
2022/12/05 16:25:35;;;;;;;109.93;57.90;;;5.40;99.90;;;;;;10334542;28;20109;-80
2022/12/05 16:30:36;;;;;;;100.37;52.27;;;5.40;99.90;;;;;;10321245;28;20117;-80
2022/12/05 16:35:48;;;;;;;128.30;71.10;;;5.40;99.90;;;;;;10313616;28;20058;-82
2022/12/05 16:40:48;;;;;;;154.60;81.53;;;5.50;99.90;;;;;;10319215;28;20124;-80
2022/12/05 16:45:51;;;;;;;126.83;74.60;;;5.50;99.90;;;;;;10316399;28;20068;-81
2022/12/05 16:51:11;;;;;;;143.57;79.57;;;5.50;99.90;;;;;;10311435;28;20036;-81
2022/12/05 16:56:19;;;;;;;140.67;82.17;;;5.50;99.90;;;;;;10313704;28;20402;-80
2022/12/05 17:01:24;;;;;;;141.63;78.70;;;5.50;99.90;;;;;;10313480;28;20038;-82
2022/12/05 17:06:25;;;;;;;138.27;78.07;;;5.60;99.90;;;;;;10322588;28;20030;-80
2022/12/05 17:11:29;;;;;;;137.40;75.37;;;5.60;99.90;;;;;;10321863;28;20030;-80
2022/12/05 17:16:30;;;;;;;131.47;66.77;;;5.60;99.90;;;;;;10320456;28;20069;-82
2022/12/05 17:21:32;;;;;;;112.43;59.30;;;5.50;99.90;;;;;;10329166;28;20076;-81
2022/12/05 17:26:33;;;;;;;138.23;71.80;;;5.50;99.90;;;;;;10322542;28;20034;-81
2022/12/05 17:31:34;;;;;;;177.00;98.47;;;5.50;99.90;;;;;;10318616;28;20100;-81
2022/12/05 17:36:35;;;;;;;138.07;72.87;;;5.60;99.90;;;;;;10319009;28;20449;-81
2022/12/05 17:41:36;;;;;;;134.57;70.47;;;5.60;99.90;;;;;;10319532;28;20085;-81
2022/12/05 17:46:36;;;;;;;140.30;74.57;;;5.60;99.90;;;;;;10319206;28;20306;-81
2022/12/05 17:51:37;;;;;;;115.17;63.97;;;5.60;99.90;;;;;;10320080;28;20041;-81
2022/12/05 17:56:37;;;;;;;122.03;67.43;;;5.70;99.90;;;;;;10319099;28;20490;-81
2022/12/05 18:01:38;;;;;;;148.43;80.53;;;5.70;99.90;;;;;;10317531;28;20092;-81
2022/12/05 18:06:38;;;;;;;132.83;74.73;;;5.70;99.90;;;;;;10318381;28;20142;-81
2022/12/05 18:11:39;;;;;;;164.00;91.60;;;5.60;99.90;;;;;;10318340;28;20034;-81
2022/12/05 18:16:39;;;;;;;166.40;91.87;;;5.70;99.90;;;;;;10309775;28;20042;-81
2022/12/05 18:21:40;;;;;;;152.13;86.30;;;5.70;99.90;;;;;;10316985;28;20581;-82
2022/12/05 18:26:40;;;;;;;156.33;87.23;;;5.70;99.90;;;;;;10316812;28;20044;-83
2022/12/05 18:31:41;;;;;;;183.47;102.90;;;5.70;99.90;;;;;;10316540;28;20109;-82
2022/12/05 18:36:42;;;;;;;222.67;117.87;;;5.70;99.90;;;;;;10326009;28;20030;-80
2022/12/05 18:41:43;;;;;;;178.83;97.37;;;5.70;99.90;;;;;;10323414;28;20046;-82
2022/12/05 18:46:43;;;;;;;197.87;109.13;;;5.70;99.90;;;;;;10333073;28;20061;-83
2022/12/05 18:51:44;;;;;;;193.07;107.17;;;5.70;99.90;;;;;;10324847;28;20400;-83
2022/12/05 18:56:48;;;;;;;213.40;118.40;;;5.70;99.90;;;;;;10325056;28;20081;-82
2022/12/05 19:01:49;;;;;;;231.90;121.53;;;5.70;99.90;;;;;;10324247;28;20073;-82
2022/12/05 19:06:52;;;;;;;224.27;117.77;;;5.60;99.90;;;;;;10323559;28;20041;-82
2022/12/05 19:11:55;;;;;;;221.13;113.93;;;5.70;99.90;;;;;;10321147;28;20042;-82
2022/12/05 19:16:56;;;;;;;188.23;99.17;;;5.70;99.90;;;;;;10323283;28;20041;-82
2022/12/05 19:21:58;;;;;;;196.53;106.77;;;5.60;99.90;;;;;;10324003;28;20466;-82
2022/12/05 19:26:58;;;;;;;240.23;121.63;;;5.60;99.90;;;;;;10320296;28;20117;-82
2022/12/05 19:31:59;;;;;;;230.97;122.53;;;5.60;99.90;;;;;;10322599;28;20084;-83
2022/12/05 19:36:59;;;;;;;332.27;172.30;;;5.60;99.90;;;;;;10326398;28;20076;-82
2022/12/05 19:42:00;;;;;;;289.90;144.83;;;5.50;99.90;;;;;;10321884;28;20540;-82
2022/12/05 19:47:00;;;;;;;398.17;209.33;;;5.50;99.90;;;;;;10322558;28;20037;-82
2022/12/05 19:52:01;;;;;;;439.13;223.93;;;5.50;99.90;;;;;;10322727;28;20393;-82
2022/12/05 19:57:01;;;;;;;463.57;241.33;;;5.50;99.90;;;;;;10321753;28;20038;-82
2022/12/05 20:02:02;;;;;;;424.07;221.07;;;5.40;99.90;;;;;;10321349;28;20042;-82
2022/12/05 20:07:02;;;;;;;358.27;186.63;;;5.40;99.90;;;;;;10322353;28;20030;-82
2022/12/05 20:12:03;;;;;;;337.83;176.03;;;5.40;99.90;;;;;;10321952;28;20042;-82
2022/12/05 20:17:04;;;;;;;256.07;128.10;;;5.50;99.90;;;;;;10322060;28;20030;-83
2022/12/05 20:22:04;;;;;;;267.17;135.20;;;5.40;99.90;;;;;;10321518;28;20109;-82
2022/12/05 20:27:06;;;;;;;246.37;126.73;;;5.40;99.90;;;;;;10321410;28;20092;-81
2022/12/05 20:32:06;;;;;;;216.47;114.47;;;5.40;99.90;;;;;;10320723;28;20054;-81
2022/12/05 20:37:07;;;;;;;249.43;127.77;;;5.40;99.90;;;;;;10321572;28;20034;-82
2022/12/05 20:42:07;;;;;;;199.73;101.87;;;5.40;99.90;;;;;;10320676;28;20034;-81
2022/12/05 20:47:08;;;;;;;209.10;102.20;;;5.30;99.90;;;;;;10319412;28;20030;-81
2022/12/05 20:52:09;;;;;;;196.17;102.10;;;5.20;99.90;;;;;;10316465;28;20054;-81
2022/12/05 20:57:10;;;;;;;210.97;104.53;;;5.20;99.90;;;;;;10319553;28;20042;-82
2022/12/05 21:02:10;;;;;;;189.13;99.53;;;5.20;99.90;;;;;;10320494;28;20030;-82
2022/12/05 21:07:11;;;;;;;186.87;98.30;;;5.20;99.90;;;;;;10320020;28;20113;-81
2022/12/05 21:12:11;;;;;;;205.33;106.30;;;5.30;99.90;;;;;;10320578;28;20050;-81
2022/12/05 21:17:12;;;;;;;203.57;106.20;;;5.30;99.90;;;;;;10319962;28;20124;-81
2022/12/05 21:22:13;;;;;;;223.73;110.00;;;5.30;99.90;;;;;;10319188;28;20038;-81
2022/12/05 21:27:13;;;;;;;214.80;111.10;;;5.30;99.90;;;;;;10317969;28;20046;-81
2022/12/05 21:32:14;;;;;;;184.73;97.53;;;5.30;99.90;;;;;;10319045;28;20072;-82
2022/12/05 21:37:14;;;;;;;233.33;112.97;;;5.20;99.90;;;;;;10320483;28;20101;-81
2022/12/05 21:42:15;;;;;;;230.53;109.60;;;5.20;99.90;;;;;;10318512;28;20125;-82
2022/12/05 21:47:16;;;;;;;240.53;114.27;;;5.30;99.90;;;;;;10318994;28;20027;-83
2022/12/05 21:52:17;;;;;;;229.37;116.40;;;5.20;99.90;;;;;;10317901;28;20041;-81
2022/12/05 21:57:17;;;;;;;230.73;112.87;;;5.20;99.90;;;;;;10318656;28;20034;-81
2022/12/05 22:02:18;;;;;;;226.37;114.53;;;5.20;99.90;;;;;;10346499;23;20145;-81
2022/12/05 22:07:18;;;;;;;242.10;116.40;;;5.20;99.90;;;;;;10362604;28;20061;-81
2022/12/05 22:12:19;;;;;;;246.57;116.67;;;5.20;99.90;;;;;;10348199;28;20077;-81
2022/12/05 22:17:19;;;;;;;230.37;111.70;;;5.20;99.90;;;;;;10336294;28;20052;-82
2022/12/05 22:22:20;;;;;;;215.20;106.07;;;5.10;99.90;;;;;;10367502;28;20072;-82
2022/12/05 22:27:20;;;;;;;227.13;111.23;;;5.10;99.90;;;;;;10367457;28;20030;-82
2022/12/05 22:32:21;;;;;;;257.47;117.37;;;5.00;99.90;;;;;;10348732;28;20050;-83
2022/12/05 22:37:21;;;;;;;234.07;112.83;;;5.10;99.90;;;;;;10359033;28;20077;-82
2022/12/05 22:42:22;;;;;;;249.33;120.50;;;5.00;99.90;;;;;;10347967;28;20044;-82
2022/12/05 22:47:22;;;;;;;250.53;113.27;;;5.00;99.90;;;;;;10348191;28;20101;-82
2022/12/05 22:52:23;;;;;;;269.60;122.53;;;5.00;99.90;;;;;;10365840;28;20041;-81
2022/12/05 22:57:23;;;;;;;250.13;117.20;;;5.00;99.90;;;;;;10347584;28;20141;-83
2022/12/05 23:02:24;;;;;;;264.30;120.93;;;5.00;99.90;;;;;;10329159;28;20131;-82
2022/12/05 23:07:24;;;;;;;297.73;132.63;;;4.90;99.90;;;;;;10325342;28;20031;-82
2022/12/05 23:12:25;;;;;;;325.90;139.37;;;4.90;99.90;;;;;;10375726;23;20058;-82
2022/12/05 23:17:25;;;;;;;318.37;141.30;;;4.90;99.90;;;;;;10363987;28;20034;-82
2022/12/05 23:22:26;;;;;;;336.20;142.00;;;4.90;99.90;;;;;;10364442;28;20119;-82
2022/12/05 23:27:26;;;;;;;342.13;136.07;;;4.90;99.90;;;;;;10363574;28;20116;-83
2022/12/05 23:32:27;;;;;;;319.80;127.13;;;4.90;99.90;;;;;;10362425;28;20069;-83
2022/12/05 23:37:27;;;;;;;330.63;129.17;;;4.90;99.90;;;;;;10363605;28;20030;-82
2022/12/05 23:42:28;;;;;;;379.57;153.50;;;4.90;99.90;;;;;;10364988;28;20038;-82
2022/12/05 23:47:28;;;;;;;395.90;159.10;;;4.80;99.90;;;;;;10362549;28;20572;-82
2022/12/05 23:52:29;;;;;;;409.47;162.27;;;4.90;99.90;;;;;;10363101;28;20041;-82
2022/12/05 23:57:30;;;;;;;440.33;180.03;;;4.80;99.90;;;;;;10363270;28;20033;-83
